Terminal Aerodrome Forecast
Issued by NWS

Home | Current Version | Previous Version | Text Only | Print | Product List | Glossary On
Versions: 1 2 3 4 5 6 7 8 9 10 11 12 13 14 15 16 17 18 19 20 21 22
000
FTPA31 PHFO 220500
TAFJRF
TAF
PHJR 220525Z 2206/2306 VRB03KT P6SM FEW035
     FM222000 14008KT P6SM FEW030 SCT050
     FM230400 VRB03KT P6SM FEW035=

USA.gov is the U.S. government's official web portal to all federal, state and local government web resources and services.